createdAt,value
2018-04-12T00:00:21.811Z,78.07
2018-04-12T00:01:02.386Z,78.16
2018-04-12T00:01:42.947Z,78.07
2018-04-12T00:02:23.531Z,78.26
2018-04-12T00:03:04.093Z,77.87
2018-04-12T00:03:44.687Z,77.97
2018-04-12T00:04:25.272Z,78.26
2018-04-12T00:05:05.833Z,78.07
2018-04-12T00:05:46.405Z,77.87
2018-04-12T00:06:26.973Z,78.16
2018-04-12T00:07:07.543Z,78.45
2018-04-12T00:07:48.109Z,78.26
2018-04-12T00:08:28.670Z,78.55
2018-04-12T00:09:09.234Z,78.55
2018-04-12T00:09:49.856Z,78.55
2018-04-12T00:10:30.419Z,78.45
2018-04-12T00:11:10.979Z,78.55
2018-04-12T00:11:51.561Z,78.36
2018-04-12T00:12:32.099Z,78.55
2018-04-12T00:13:12.711Z,78.55
2018-04-12T00:13:53.282Z,78.26
2018-04-12T00:14:33.872Z,78.36
2018-04-12T00:15:14.439Z,78.55
2018-04-12T00:15:54.991Z,78.64
2018-04-12T00:16:35.545Z,78.55
2018-04-12T00:17:16.111Z,78.64
2018-04-12T00:17:56.669Z,78.55
2018-04-12T00:18:37.223Z,78.36
2018-04-12T00:19:17.785Z,78.45
2018-04-12T00:19:58.355Z,78.64
2018-04-12T00:20:38.907Z,78.16
2018-04-12T00:21:19.478Z,78.55
2018-04-12T00:22:00.077Z,78.45
2018-04-12T00:22:40.643Z,78.55
2018-04-12T00:23:21.200Z,78.64
2018-04-12T00:24:01.816Z,78.45
2018-04-12T00:24:42.397Z,78.36
2018-04-12T00:25:22.959Z,78.45
2018-04-12T00:26:03.523Z,78.16
2018-04-12T00:26:44.077Z,78.36
2018-04-12T00:27:24.651Z,78.26
2018-04-12T00:28:05.219Z,78.55
2018-04-12T00:28:45.794Z,78.16
2018-04-12T00:29:26.382Z,78.55
2018-04-12T00:30:06.970Z,78.26
2018-04-12T00:30:47.533Z,78.55
2018-04-12T00:31:28.091Z,78.36
2018-04-12T00:32:08.653Z,78.26
2018-04-12T00:32:49.237Z,79.02
2018-04-12T00:33:29.817Z,78.93
2018-04-12T00:34:10.407Z,79.02
2018-04-12T00:34:51.003Z,78.45
2018-04-12T00:35:31.555Z,78.36
2018-04-12T00:36:12.123Z,78.93
2018-04-12T00:36:52.690Z,79.12
2018-04-12T00:37:33.248Z,78.93
2018-04-12T00:38:13.804Z,79.02
2018-04-12T00:38:54.411Z,79.02
2018-04-12T00:39:34.931Z,78.74
2018-04-12T00:40:15.485Z,78.83
2018-04-12T00:40:56.058Z,79.02
2018-04-12T00:41:36.632Z,79.02
2018-04-12T00:42:17.217Z,78.74
2018-04-12T00:42:57.776Z,78.93
2018-04-12T00:43:38.351Z,79.12
2018-04-12T00:44:18.920Z,79.02
2018-04-12T00:44:59.494Z,79.02
2018-04-12T00:45:40.065Z,78.83
2018-04-12T00:46:20.628Z,78.83
2018-04-12T00:47:01.225Z,79.22
2018-04-12T00:47:41.783Z,79.12
2018-04-12T00:48:22.369Z,78.74
2018-04-12T00:49:02.934Z,78.55
2018-04-12T00:49:43.497Z,79.31
2018-04-12T00:50:24.085Z,79.02
2018-04-12T00:51:04.644Z,79.31
2018-04-12T00:51:45.234Z,79.31
2018-04-12T00:52:25.821Z,79.31
2018-04-12T00:53:06.370Z,79.5
2018-04-12T00:53:46.958Z,78.99
2018-04-12T00:54:27.514Z,79.36
2018-04-12T00:55:08.083Z,78.99
2018-04-12T00:55:48.668Z,79.17
2018-04-12T00:56:29.227Z,79.65
2018-04-12T00:57:09.832Z,79.22
2018-04-12T00:57:50.449Z,79.17
2018-04-12T00:58:31.008Z,79.08
2018-04-12T00:59:11.566Z,79.36
2018-04-12T00:59:52.129Z,79.36
2018-04-12T01:00:32.679Z,79.36
2018-04-12T01:01:13.251Z,79.56
2018-04-12T01:01:53.806Z,79.36
2018-04-12T01:02:34.360Z,79.17
2018-04-12T01:03:14.935Z,79.08
2018-04-12T01:03:55.498Z,79.36
2018-04-12T01:04:36.048Z,79.36
2018-04-12T01:05:16.660Z,79.36
2018-04-12T01:05:57.209Z,78.89
2018-04-12T01:06:37.784Z,78.99
2018-04-12T01:07:18.346Z,79.08
2018-04-12T01:07:58.905Z,78.99
2018-04-12T01:08:39.463Z,79.36
2018-04-12T01:09:20.015Z,79.56
2018-04-12T01:10:00.611Z,79.56
2018-04-12T01:10:41.189Z,79.65
2018-04-12T01:11:21.776Z,79.75
2018-04-12T01:12:02.389Z,79.46
2018-04-12T01:12:42.983Z,79.65
2018-04-12T01:13:23.594Z,79.65
2018-04-12T01:14:04.163Z,79.17
2018-04-12T01:14:44.744Z,79.46
2018-04-12T01:15:25.327Z,79.46
2018-04-12T01:16:05.885Z,79.27
2018-04-12T01:16:46.459Z,79.36
2018-04-12T01:17:27.060Z,79.46
2018-04-12T01:18:07.635Z,79.46
2018-04-12T01:18:48.231Z,79.27
2018-04-12T01:19:28.809Z,79.17
2018-04-12T01:20:09.381Z,79.65
2018-04-12T01:20:49.952Z,79.46
2018-04-12T01:21:30.520Z,79.94
2018-04-12T01:22:11.088Z,80.04
2018-04-12T01:22:51.646Z,80.13
2018-04-12T01:23:32.215Z,80.04
2018-04-12T01:24:12.772Z,79.94
2018-04-12T01:24:53.356Z,79.85
2018-04-12T01:25:33.916Z,79.65
2018-04-12T01:26:14.516Z,79.94
2018-04-12T01:26:55.072Z,80.13
2018-04-12T01:27:35.628Z,79.56
2018-04-12T01:28:16.187Z,80.13
2018-04-12T01:28:56.752Z,79.85
2018-04-12T01:29:37.339Z,79.85
2018-04-12T01:30:17.908Z,79.94
2018-04-12T01:30:58.475Z,80.13
2018-04-12T01:31:39.031Z,79.94
2018-04-12T01:32:19.592Z,80.13
2018-04-12T01:33:00.187Z,80.13
2018-04-12T01:33:40.758Z,79.85
2018-04-12T01:34:21.350Z,79.94
2018-04-12T01:35:01.897Z,79.94
2018-04-12T01:35:42.468Z,80.22
2018-04-12T01:36:23.027Z,80.13
2018-04-12T01:37:03.633Z,79.75
2018-04-12T01:37:44.142Z,80.13
2018-04-12T01:38:24.711Z,79.94
2018-04-12T01:39:05.273Z,79.94
2018-04-12T01:39:45.856Z,80.04
2018-04-12T01:40:26.429Z,79.94
2018-04-12T01:41:06.976Z,79.85
2018-04-12T01:41:47.561Z,79.85
2018-04-12T01:42:28.118Z,79.85
2018-04-12T01:43:08.669Z,79.65
2018-04-12T01:43:49.236Z,80.13
2018-04-12T01:44:29.804Z,79.94
2018-04-12T01:45:10.358Z,79.94
2018-04-12T01:45:50.959Z,80.13
2018-04-12T01:46:31.519Z,80.41
2018-04-12T01:47:12.080Z,80.51
2018-04-12T01:47:52.653Z,80.51
2018-04-12T01:48:33.260Z,80.61
2018-04-12T01:49:13.843Z,80.13
2018-04-12T01:49:54.405Z,80.13
2018-04-12T01:50:34.977Z,80.51
2018-04-12T01:51:15.559Z,80.51
2018-04-12T01:51:56.125Z,80.51
2018-04-12T01:52:36.701Z,80.41
2018-04-12T01:53:17.329Z,80.51
2018-04-12T01:53:57.830Z,80.32
2018-04-12T01:54:38.391Z,80.32
2018-04-12T01:55:18.940Z,80.51
2018-04-12T01:55:59.510Z,80.51
2018-04-12T01:56:40.094Z,80.51
2018-04-12T01:57:20.691Z,80.28
2018-04-12T01:58:01.255Z,80.61
2018-04-12T01:58:41.825Z,80.7
2018-04-12T01:59:22.407Z,80.7
2018-04-12T02:00:02.975Z,80.99
2018-04-12T02:00:43.550Z,80.41
2018-04-12T02:01:24.131Z,80.7
2018-04-12T02:02:04.719Z,80.51
2018-04-12T02:02:45.299Z,80.8
2018-04-12T02:03:25.862Z,80.8
2018-04-12T02:04:06.410Z,80.47
2018-04-12T02:04:46.990Z,80.51
2018-04-12T02:05:27.549Z,80.32
2018-04-12T02:06:08.128Z,80.41
2018-04-12T02:06:48.688Z,80.51
2018-04-12T02:07:29.246Z,80.41
2018-04-12T02:08:09.810Z,80.66
2018-04-12T02:08:50.378Z,80.32
2018-04-12T02:09:30.945Z,80.41
2018-04-12T02:10:11.495Z,81.27
2018-04-12T02:10:52.062Z,81.09
2018-04-12T02:11:32.623Z,80.61
2018-04-12T02:12:13.200Z,80.95
2018-04-12T02:12:53.753Z,80.38
2018-04-12T02:13:34.317Z,81.43
2018-04-12T02:14:14.940Z,81.33
2018-04-12T02:14:55.502Z,81.14
2018-04-12T02:15:36.084Z,81.43
2018-04-12T02:16:16.639Z,81.33
2018-04-12T02:16:57.202Z,81.24
2018-04-12T02:17:37.811Z,81.43
2018-04-12T02:18:18.397Z,81.43
2018-04-12T02:18:58.967Z,81.04
2018-04-12T02:19:39.536Z,81.24
2018-04-12T02:20:20.102Z,81.52
2018-04-12T02:21:00.658Z,81.43
2018-04-12T02:21:41.234Z,81.43
2018-04-12T02:22:21.802Z,81.52
2018-04-12T02:23:02.360Z,81.24
2018-04-12T02:23:42.931Z,82.09
2018-04-12T02:24:23.499Z,81.81
2018-04-12T02:25:04.066Z,81.81
2018-04-12T02:25:44.619Z,82
2018-04-12T02:26:25.201Z,82
2018-04-12T02:27:05.767Z,81.71
2018-04-12T02:27:46.323Z,82
2018-04-12T02:28:26.884Z,81.81
2018-04-12T02:29:07.438Z,82.09
2018-04-12T02:29:48.014Z,82.09
2018-04-12T02:30:28.574Z,82
2018-04-12T02:31:09.144Z,81.9
2018-04-12T02:31:49.693Z,82
2018-04-12T02:32:30.280Z,82
2018-04-12T02:33:10.845Z,82
2018-04-12T02:33:51.406Z,81.81
2018-04-12T02:34:31.965Z,81.81
2018-04-12T02:35:12.534Z,81.71
2018-04-12T02:35:53.091Z,82
2018-04-12T02:36:33.658Z,82
2018-04-12T02:37:14.220Z,82
2018-04-12T02:37:54.785Z,81.9
2018-04-12T02:38:35.375Z,82
2018-04-12T02:39:15.968Z,81.9
2018-04-12T02:39:56.593Z,81.71
2018-04-12T02:40:37.142Z,81.71
2018-04-12T02:41:17.702Z,81.71
2018-04-12T02:41:58.265Z,82.29
2018-04-12T02:42:38.857Z,81.81
2018-04-12T02:43:19.405Z,82.19
2018-04-12T02:43:59.988Z,82.09
2018-04-12T02:44:40.556Z,82.19
2018-04-12T02:45:21.123Z,82.76
2018-04-12T02:46:01.705Z,82
2018-04-12T02:46:42.262Z,82.19
2018-04-12T02:47:22.840Z,82.19
2018-04-12T02:48:03.410Z,82.29
2018-04-12T02:48:43.980Z,82.19
2018-04-12T02:49:24.544Z,82.57
2018-04-12T02:50:05.123Z,82.19
2018-04-12T02:50:45.704Z,82
2018-04-12T02:51:26.257Z,82.48
2018-04-12T02:52:06.818Z,82.48
2018-04-12T02:52:47.379Z,82.48
2018-04-12T02:53:27.944Z,82.76
2018-04-12T02:54:08.513Z,82.57
2018-04-12T02:54:49.125Z,82.76
2018-04-12T02:55:29.665Z,82.48
2018-04-12T02:56:10.228Z,82.67
2018-04-12T02:56:50.805Z,82.76
2018-04-12T02:57:31.361Z,82.57
2018-04-12T02:58:11.936Z,82.57
2018-04-12T02:58:52.517Z,82.57
2018-04-12T02:59:33.129Z,82.57
2018-04-12T03:00:13.715Z,82.48
2018-04-12T03:00:54.268Z,82.67
2018-04-12T03:01:34.858Z,82.38
2018-04-12T03:02:15.437Z,82.67
2018-04-12T03:02:56.010Z,82.57
2018-04-12T03:03:36.565Z,82.57
2018-04-12T03:04:17.124Z,82.57
2018-04-12T03:04:57.677Z,82.38
2018-04-12T03:05:38.244Z,82.76
2018-04-12T03:06:18.826Z,82.48
2018-04-12T03:06:59.406Z,82.67
2018-04-12T03:07:39.954Z,82.48
2018-04-12T03:08:20.508Z,82.72
2018-04-12T03:09:01.098Z,82.57
2018-04-12T03:09:41.671Z,82.57
2018-04-12T03:10:22.243Z,82.57
2018-04-12T03:11:02.811Z,82.38
2018-04-12T03:11:43.380Z,82.67
2018-04-12T03:12:23.927Z,82.29
2018-04-12T03:13:04.501Z,82.67
2018-04-12T03:13:45.075Z,82.48
2018-04-12T03:14:25.645Z,82.09
2018-04-12T03:15:06.226Z,82.19
2018-04-12T03:15:46.796Z,82.67
2018-04-12T03:16:27.370Z,82.76
2018-04-12T03:17:07.932Z,82.72
2018-04-12T03:17:48.490Z,83.14
2018-04-12T03:18:29.051Z,82.91
2018-04-12T03:19:09.610Z,82.91
2018-04-12T03:19:50.196Z,82.38
2018-04-12T03:20:30.759Z,82.57
2018-04-12T03:21:11.312Z,82.53
2018-04-12T03:21:51.876Z,82.34
2018-04-12T03:22:32.467Z,83.05
2018-04-12T03:23:13.045Z,82.53
2018-04-12T03:23:53.605Z,82.48
2018-04-12T03:24:34.155Z,82.38
2018-04-12T03:25:14.718Z,82.63
2018-04-12T03:25:55.308Z,82.67
2018-04-12T03:26:35.876Z,83.14
2018-04-12T03:27:16.454Z,82.63
2018-04-12T03:27:57.011Z,82.72
2018-04-12T03:28:37.575Z,82.82
2018-04-12T03:29:18.141Z,82.63
2018-04-12T03:29:58.716Z,82.76
2018-04-12T03:30:39.282Z,82.53
2018-04-12T03:31:19.836Z,82.63
2018-04-12T03:32:00.393Z,83.11
2018-04-12T03:32:40.983Z,82.53
2018-04-12T03:33:21.545Z,82.63
2018-04-12T03:34:02.120Z,83.2
2018-04-12T03:34:42.689Z,83.05
2018-04-12T03:35:23.260Z,82.63
2018-04-12T03:36:03.826Z,82.63
2018-04-12T03:36:44.385Z,83.01
2018-04-12T03:37:24.944Z,83.29
2018-04-12T03:38:05.501Z,83.29
2018-04-12T03:38:46.113Z,83.29
2018-04-12T03:39:26.690Z,83.29
2018-04-12T03:40:07.245Z,82.63
2018-04-12T03:40:47.817Z,82.82
2018-04-12T03:41:28.417Z,83.2
2018-04-12T03:42:08.990Z,83.2
2018-04-12T03:42:49.553Z,83.11
2018-04-12T03:43:30.129Z,82.82
2018-04-12T03:44:10.721Z,82.91
2018-04-12T03:44:51.286Z,82.72
2018-04-12T03:45:31.876Z,82.72
2018-04-12T03:46:12.448Z,82.82
2018-04-12T03:46:53.005Z,83.11
2018-04-12T03:47:33.591Z,83.01
2018-04-12T03:48:14.169Z,83.11
2018-04-12T03:48:54.754Z,83.01
2018-04-12T03:49:35.368Z,83.01
2018-04-12T03:50:15.872Z,83.01
2018-04-12T03:50:56.439Z,82.72
2018-04-12T03:51:37.010Z,83.24
2018-04-12T03:52:17.568Z,83.11
2018-04-12T03:52:58.116Z,83.01
2018-04-12T03:53:38.677Z,83.11
2018-04-12T03:54:19.230Z,83.01
2018-04-12T03:54:59.814Z,83.01
2018-04-12T03:55:40.378Z,83.29
2018-04-12T03:56:20.982Z,83.11
2018-04-12T03:57:01.569Z,83.2
2018-04-12T03:57:42.167Z,82.63
2018-04-12T03:58:22.772Z,83.01
2018-04-12T03:59:03.355Z,83.29
2018-04-12T03:59:43.905Z,83.2
2018-04-12T04:00:24.492Z,83.01
2018-04-12T04:01:05.073Z,82.91
2018-04-12T04:01:45.740Z,82.82
2018-04-12T04:02:26.285Z,83.2
2018-04-12T04:03:06.912Z,82.72
2018-04-12T04:03:47.465Z,82.82
2018-04-12T04:04:28.055Z,82.53
2018-04-12T04:05:08.617Z,82.82
2018-04-12T04:05:49.185Z,82.34
2018-04-12T04:06:29.748Z,82.34
2018-04-12T04:07:10.321Z,82.72
2018-04-12T04:07:50.939Z,82.72
2018-04-12T04:08:31.509Z,82.91
2018-04-12T04:09:12.077Z,82.91
2018-04-12T04:09:52.629Z,82.43
2018-04-12T04:10:33.181Z,82.63
2018-04-12T04:11:13.744Z,83.01
2018-04-12T04:11:54.326Z,82.53
2018-04-12T04:12:34.922Z,82.82
2018-04-12T04:13:15.517Z,82.82
2018-04-12T04:13:56.075Z,82.82
2018-04-12T04:14:36.666Z,82.72
2018-04-12T04:15:17.222Z,83.01
2018-04-12T04:15:57.922Z,82.82
2018-04-12T04:16:38.698Z,83.01
2018-04-12T04:17:19.255Z,82.82
2018-04-12T04:17:59.824Z,82.91
2018-04-12T04:18:40.391Z,83.01
2018-04-12T04:19:20.941Z,83.58
2018-04-12T04:20:01.495Z,83.2
2018-04-12T04:20:42.056Z,83.67
2018-04-12T04:21:22.618Z,83.96
2018-04-12T04:22:03.282Z,84.34
2018-04-12T04:22:45.821Z,84.96
2018-04-12T04:23:26.408Z,84.29
2018-04-12T04:24:07.008Z,84.48
2018-04-12T04:24:47.607Z,84.39
2018-04-12T04:25:28.164Z,84.05
2018-04-12T04:26:08.763Z,82.71
2018-04-12T04:26:49.323Z,80.7
2018-04-12T04:27:29.880Z,80.7
2018-04-12T04:28:10.462Z,79.75
2018-04-12T04:28:51.030Z,79.85
2018-04-12T04:29:31.600Z,79.65
2018-04-12T04:30:12.165Z,79.9
2018-04-12T04:30:52.719Z,80.47
2018-04-12T04:31:33.288Z,80.76
2018-04-12T04:32:13.843Z,81.04
2018-04-12T04:32:54.401Z,80.85
2018-04-12T04:33:34.979Z,81.33
2018-04-12T04:34:15.543Z,81.33
2018-04-12T04:34:56.139Z,81.71
2018-04-12T04:35:36.682Z,81.81
2018-04-12T04:36:17.286Z,82
2018-04-12T04:36:57.843Z,81.86
2018-04-12T04:37:38.415Z,82.57
2018-04-12T04:38:19.019Z,82.43
2018-04-12T04:38:59.620Z,82.34
2018-04-12T04:39:40.187Z,82.34
2018-04-12T04:40:20.790Z,82.72
2018-04-12T04:41:01.339Z,82.53
2018-04-12T04:41:41.889Z,82.53
2018-04-12T04:42:22.439Z,82.63
2018-04-12T04:43:03.012Z,82.34
2018-04-12T04:43:43.590Z,82.53
2018-04-12T04:44:24.171Z,82.91
2018-04-12T04:45:04.743Z,82.53
2018-04-12T04:45:45.290Z,82.91
2018-04-12T04:46:25.881Z,82.53
2018-04-12T04:47:06.489Z,82.63
2018-04-12T04:47:47.154Z,83.01
2018-04-12T04:48:27.747Z,82.53
2018-04-12T04:49:08.313Z,82.53
2018-04-12T04:49:48.879Z,82.91
2018-04-12T04:50:29.474Z,82.72
2018-04-12T04:51:10.063Z,83.29
2018-04-12T04:51:50.621Z,83.01
2018-04-12T04:52:31.179Z,82.63
2018-04-12T04:53:11.748Z,82.82
2018-04-12T04:53:52.424Z,82.91
2018-04-12T04:54:33.142Z,82.53
2018-04-12T04:55:13.746Z,82.34
2018-04-12T04:55:54.440Z,82.82
2018-04-12T04:56:35.705Z,82.72
2018-04-12T04:57:16.305Z,82.63
2018-04-12T04:57:56.866Z,82.82
2018-04-12T04:58:37.441Z,82.91
2018-04-12T04:59:18.003Z,83.29
2018-04-12T04:59:58.607Z,83.11
2018-04-12T05:00:39.151Z,83.58
2018-04-12T05:01:19.707Z,83.58
2018-04-12T05:02:00.267Z,82.53
2018-04-12T05:02:40.856Z,83.58
2018-04-12T05:03:21.413Z,82.72
2018-04-12T05:04:01.980Z,82.91
2018-04-12T05:04:42.558Z,82.72
2018-04-12T05:05:23.140Z,82.63
2018-04-12T05:06:03.712Z,82.53
2018-04-12T05:06:44.266Z,82.91
2018-04-12T05:07:24.832Z,83.2
2018-04-12T05:08:05.421Z,82.63
2018-04-12T05:08:45.970Z,82.72
2018-04-12T05:09:26.538Z,83.01
2018-04-12T05:10:07.116Z,82.91
2018-04-12T05:10:47.841Z,82.82
2018-04-12T05:11:28.403Z,82.63
2018-04-12T05:12:08.969Z,82.82
2018-04-12T05:12:49.534Z,83.11
2018-04-12T05:13:30.132Z,83.29
2018-04-12T05:14:10.684Z,83.48
2018-04-12T05:14:51.297Z,83.29
2018-04-12T05:15:31.903Z,83.29
2018-04-12T05:16:12.414Z,82.72
2018-04-12T05:16:53.008Z,83.11
2018-04-12T05:17:33.615Z,83.29
2018-04-12T05:18:14.186Z,83.11
2018-04-12T05:18:54.846Z,83.39
2018-04-12T05:19:35.414Z,82.72
2018-04-12T05:20:16.009Z,82.82
2018-04-12T05:20:56.616Z,82.63
2018-04-12T05:21:37.201Z,82.82
2018-04-12T05:22:17.770Z,83.29
2018-04-12T05:22:58.332Z,83.77
2018-04-12T05:23:38.899Z,83.2
2018-04-12T05:24:19.450Z,82.91
2018-04-12T05:25:00.021Z,83.01
2018-04-12T05:25:40.588Z,82.82
2018-04-12T05:26:21.167Z,83.01
2018-04-12T05:27:01.712Z,83.01
2018-04-12T05:27:42.303Z,83.29
2018-04-12T05:28:22.876Z,83.11
2018-04-12T05:29:03.437Z,82.72
2018-04-12T05:29:44.139Z,82.72
2018-04-12T05:30:24.724Z,82.82
2018-04-12T05:31:05.313Z,82.72
2018-04-12T05:31:45.924Z,82.91
2018-04-12T05:32:26.477Z,82.82
2018-04-12T05:33:07.091Z,83.67
2018-04-12T05:33:47.633Z,82.82
2018-04-12T05:34:28.202Z,82.82
2018-04-12T05:35:08.767Z,84.06
2018-04-12T05:35:49.330Z,83.96
2018-04-12T05:36:29.954Z,82.82
2018-04-12T05:37:10.583Z,83.05
2018-04-12T05:37:51.136Z,82.91
2018-04-12T05:38:31.735Z,82.76
2018-04-12T05:39:12.298Z,82.86
2018-04-12T05:39:52.848Z,82.76
2018-04-12T05:40:33.420Z,82.48
2018-04-12T05:41:13.981Z,81.18
2018-04-12T05:41:54.561Z,80.51
2018-04-12T05:42:35.133Z,80.32
2018-04-12T05:43:15.700Z,80.04
2018-04-12T05:43:56.296Z,79.94
2018-04-12T05:44:36.865Z,79.56
2018-04-12T05:45:17.441Z,79.46
2018-04-12T05:45:58.121Z,79.17
2018-04-12T05:46:38.695Z,79.46
2018-04-12T05:47:19.266Z,79.08
2018-04-12T05:47:59.834Z,78.7
2018-04-12T05:48:40.391Z,79.08
2018-04-12T05:49:20.955Z,79.56
2018-04-12T05:50:01.508Z,78.99
2018-04-12T05:50:42.085Z,79.46
2018-04-12T05:51:24.498Z,79.43
2018-04-12T05:52:05.116Z,79.71
2018-04-12T05:52:45.692Z,79.71
2018-04-12T05:53:26.297Z,79.43
2018-04-12T05:54:06.920Z,79.33
2018-04-12T05:54:47.508Z,79.9
2018-04-12T05:55:28.073Z,80.19
2018-04-12T05:56:08.627Z,79.9
2018-04-12T05:56:49.209Z,80.38
2018-04-12T05:57:29.764Z,80.38
2018-04-12T05:58:10.406Z,80.47
2018-04-12T05:58:50.935Z,80.47
2018-04-12T05:59:31.518Z,80.85
2018-04-12T06:00:12.086Z,80.47
2018-04-12T06:00:52.689Z,80.28
2018-04-12T06:01:33.279Z,80.76
2018-04-12T06:02:13.832Z,80.76
2018-04-12T06:02:54.400Z,80.57
2018-04-12T06:03:35.044Z,80.76
2018-04-12T06:04:15.629Z,80.76
2018-04-12T06:04:56.224Z,80.76
2018-04-12T06:05:36.798Z,80.66
2018-04-12T06:06:17.369Z,80.47
2018-04-12T06:06:57.931Z,80.76
2018-04-12T06:07:38.508Z,80.66
2018-04-12T06:08:19.071Z,80.95
2018-04-12T06:08:59.644Z,80.76
2018-04-12T06:09:40.259Z,80.76
2018-04-12T06:10:20.823Z,80.66
2018-04-12T06:11:01.429Z,80.47
2018-04-12T06:11:42.051Z,80.85
2018-04-12T06:12:22.705Z,80.57
2018-04-12T06:13:03.294Z,80.19
2018-04-12T06:13:43.850Z,80.57
2018-04-12T06:14:24.434Z,80.57
2018-04-12T06:15:04.995Z,80.76
2018-04-12T06:15:45.564Z,80.09
2018-04-12T06:16:26.171Z,80.57
2018-04-12T06:17:06.708Z,80.47
2018-04-12T06:17:47.303Z,80.66
2018-04-12T06:18:27.876Z,80.28
2018-04-12T06:19:08.449Z,80.57
2018-04-12T06:19:49.068Z,79.8
2018-04-12T06:20:29.652Z,79.9
2018-04-12T06:21:10.325Z,79.99
2018-04-12T06:21:50.949Z,79.71
2018-04-12T06:22:31.500Z,79.99
2018-04-12T06:23:12.067Z,79.99
2018-04-12T06:23:52.667Z,79.23
2018-04-12T06:24:33.258Z,79.33
2018-04-12T06:25:13.836Z,79.71
2018-04-12T06:25:54.429Z,79.43
2018-04-12T06:26:35.006Z,79.52
2018-04-12T06:27:15.587Z,79.36
2018-04-12T06:27:56.172Z,79.17
2018-04-12T06:28:36.752Z,79.08
2018-04-12T06:29:17.400Z,78.7
2018-04-12T06:29:57.972Z,78.79
2018-04-12T06:30:38.585Z,78.89
2018-04-12T06:31:19.218Z,78.89
2018-04-12T06:31:59.795Z,78.99
2018-04-12T06:32:40.655Z,78.41
2018-04-12T06:33:21.503Z,78.03
2018-04-12T06:34:02.146Z,78.03
2018-04-12T06:34:42.701Z,78.13
2018-04-12T06:35:23.259Z,78.22
2018-04-12T06:36:03.831Z,78.22
2018-04-12T06:36:44.414Z,77.36
2018-04-12T06:37:24.991Z,76.88
2018-04-12T06:38:05.594Z,76.98
2018-04-12T06:38:46.174Z,76.79
2018-04-12T06:39:26.761Z,76.98
2018-04-12T06:40:07.327Z,76.35
2018-04-12T06:40:47.889Z,76.54
2018-04-12T06:41:28.452Z,76.25
2018-04-12T06:42:09.026Z,76.25
2018-04-12T06:42:49.591Z,76.16
2018-04-12T06:43:30.177Z,75.96
2018-04-12T06:44:10.735Z,76.25
2018-04-12T06:44:51.349Z,75.59
2018-04-12T06:45:31.929Z,75.49
2018-04-12T06:46:12.574Z,75.14
2018-04-12T06:46:53.134Z,74.91
2018-04-12T06:47:33.708Z,75.05
2018-04-12T06:48:14.268Z,74.85
2018-04-12T06:48:54.868Z,74.85
2018-04-12T06:49:35.458Z,73.9
2018-04-12T06:50:16.027Z,73.99
2018-04-12T06:50:56.621Z,74.19
2018-04-12T06:51:37.235Z,73.8
2018-04-12T06:52:17.823Z,73.23
2018-04-12T06:52:58.388Z,73.23
2018-04-12T06:53:38.953Z,73.04
2018-04-12T06:54:19.519Z,73.43
2018-04-12T06:55:00.124Z,73.8
2018-04-12T06:55:40.689Z,73.99
2018-04-12T06:56:21.309Z,73.33
2018-04-12T06:57:01.879Z,73.71
2018-04-12T06:57:42.452Z,74.19
2018-04-12T06:58:23.022Z,73.99
2018-04-12T06:59:03.594Z,74.09
2018-04-12T06:59:44.152Z,74.09
2018-04-12T07:00:24.756Z,73.71
2018-04-12T07:01:05.356Z,73.9
2018-04-12T07:01:45.952Z,74.09
2018-04-12T07:02:27.224Z,74.09
2018-04-12T07:03:07.872Z,73.86
2018-04-12T07:03:48.576Z,74.48
2018-04-12T07:04:29.135Z,74.28
2018-04-12T07:05:09.734Z,74.09
2018-04-12T07:05:50.315Z,74.53
2018-04-12T07:06:31.590Z,74.19
2018-04-12T07:07:12.245Z,74.76
2018-04-12T07:07:52.768Z,73.9
2018-04-12T07:08:33.383Z,74.09
2018-04-12T07:09:14.050Z,74.09
2018-04-12T07:09:54.720Z,73.99
2018-04-12T07:10:35.284Z,74.28
2018-04-12T07:11:15.847Z,74.48
2018-04-12T07:11:56.455Z,74.38
2018-04-12T07:12:37.015Z,74.57
2018-04-12T07:13:17.611Z,74.09
2018-04-12T07:13:58.184Z,73.52
2018-04-12T07:14:38.777Z,73.14
2018-04-12T07:15:19.342Z,72.94
2018-04-12T07:15:59.902Z,72.47
2018-04-12T07:16:40.606Z,72.66
2018-04-12T07:17:21.152Z,72.75
2018-04-12T07:18:01.841Z,72.75
2018-04-12T07:18:42.674Z,73.04
2018-04-12T07:19:23.916Z,73.14
2018-04-12T07:20:04.532Z,73.14
2018-04-12T07:20:45.078Z,73.52
2018-04-12T07:21:25.863Z,73.23
2018-04-12T07:22:06.501Z,73.33
2018-04-12T07:22:47.199Z,73.33
2018-04-12T07:23:28.178Z,73.14
2018-04-12T07:24:09.065Z,73.14
2018-04-12T07:24:49.685Z,73.23
2018-04-12T07:25:30.384Z,73.23
2018-04-12T07:26:10.972Z,73.43
2018-04-12T07:26:51.575Z,73.43
2018-04-12T07:27:33.165Z,73.33
2018-04-12T07:28:13.829Z,73.23
2018-04-12T07:28:54.455Z,73.33
2018-04-12T07:29:35.048Z,73.8
2018-04-12T07:30:15.626Z,73.71
2018-04-12T07:30:56.231Z,73.61
2018-04-12T07:31:37.108Z,73.14
2018-04-12T07:32:17.704Z,73.14
2018-04-12T07:32:58.299Z,73.14
2018-04-12T07:33:38.870Z,73.04
2018-04-12T07:34:19.417Z,72.94
2018-04-12T07:35:00.038Z,72.37
2018-04-12T07:35:40.632Z,73.14
2018-04-12T07:36:21.257Z,72.85
2018-04-12T07:37:01.851Z,72.85
2018-04-12T07:37:42.453Z,73.04
2018-04-12T07:38:24.080Z,73.04
2018-04-12T07:39:04.698Z,72.75
2018-04-12T07:39:45.256Z,72.56
2018-04-12T07:40:25.850Z,72.94
2018-04-12T07:41:06.745Z,72.56
2018-04-12T07:41:47.366Z,72.94
2018-04-12T07:42:28.009Z,72.66
2018-04-12T07:43:08.574Z,72.37
2018-04-12T07:43:49.179Z,73.04
2018-04-12T07:44:29.745Z,72.94
2018-04-12T07:45:10.313Z,72.79
2018-04-12T07:45:50.976Z,72.6
2018-04-12T07:46:31.844Z,72.6
2018-04-12T07:47:12.800Z,72.31
2018-04-12T07:47:53.549Z,72.41
2018-04-12T07:48:34.108Z,72.5
2018-04-12T07:49:14.695Z,72.02
2018-04-12T07:49:55.667Z,71.93
2018-04-12T07:50:36.269Z,71.73
2018-04-12T07:51:16.934Z,71.83
2018-04-12T07:51:57.502Z,71.83
2018-04-12T07:52:38.123Z,71.55
2018-04-12T07:53:18.694Z,71.45
2018-04-12T07:53:59.253Z,71.3
2018-04-12T07:54:39.847Z,71.39
2018-04-12T07:55:20.449Z,71.2
2018-04-12T07:56:01.061Z,70.24
2018-04-12T07:56:41.673Z,69.76
2018-04-12T07:57:22.236Z,69.67
2018-04-12T07:58:02.845Z,69.42
2018-04-12T07:58:43.415Z,69.23
2018-04-12T07:59:24.006Z,69.03
2018-04-12T08:00:04.627Z,68.94
2018-04-12T08:00:45.220Z,68.74
2018-04-12T08:01:25.780Z,69.13
2018-04-12T08:02:06.403Z,69.32
2018-04-12T08:02:46.896Z,68.46
2018-04-12T08:03:27.510Z,68.07
2018-04-12T08:04:08.105Z,67.79
2018-04-12T08:04:48.688Z,68.17
2018-04-12T08:05:29.361Z,67.79
2018-04-12T08:06:09.958Z,67.88
2018-04-12T08:06:50.562Z,67.88
2018-04-12T08:07:31.139Z,67.34
2018-04-12T08:08:11.731Z,67.44
2018-04-12T08:08:52.398Z,67.72
2018-04-12T08:09:32.969Z,67.44
2018-04-12T08:10:13.567Z,66.67
2018-04-12T08:10:54.132Z,66.48
2018-04-12T08:11:34.715Z,66
2018-04-12T08:12:15.268Z,66.29
2018-04-12T08:12:55.899Z,66.38
2018-04-12T08:13:36.525Z,66.58
2018-04-12T08:14:17.092Z,66.09
2018-04-12T08:14:57.683Z,66.58
2018-04-12T08:15:38.244Z,66.58
2018-04-12T08:16:18.898Z,66.67
2018-04-12T08:16:59.408Z,66.77
2018-04-12T08:17:39.980Z,66.64
2018-04-12T08:18:20.584Z,67.02
2018-04-12T08:19:01.182Z,67.02
2018-04-12T08:19:41.774Z,67.21
2018-04-12T08:20:22.333Z,67.5
2018-04-12T08:21:02.901Z,67.11
2018-04-12T08:21:43.542Z,67.41
2018-04-12T08:22:24.116Z,67.31
2018-04-12T08:23:04.684Z,67.5
2018-04-12T08:23:45.247Z,68.07
2018-04-12T08:24:25.957Z,67.88
2018-04-12T08:25:06.516Z,68.17
2018-04-12T08:25:47.107Z,67.79
2018-04-12T08:26:27.732Z,67.69
2018-04-12T08:27:08.273Z,67.79
2018-04-12T08:27:48.826Z,67.6
2018-04-12T08:28:29.425Z,68.07
2018-04-12T08:29:09.982Z,68.07
2018-04-12T08:29:50.544Z,67.79
2018-04-12T08:30:31.117Z,67.5
2018-04-12T08:31:11.706Z,67.5
2018-04-12T08:31:52.268Z,67.21
2018-04-12T08:32:32.858Z,67.02
2018-04-12T08:33:13.469Z,67.6
2018-04-12T08:33:54.025Z,67.31
2018-04-12T08:34:34.639Z,67.44
2018-04-12T08:35:15.214Z,67.34
2018-04-12T08:35:55.788Z,67.05
2018-04-12T08:36:36.368Z,67.34
2018-04-12T08:37:16.936Z,67.05
2018-04-12T08:37:57.521Z,66.67
2018-04-12T08:38:38.096Z,66.96
2018-04-12T08:39:18.665Z,66.86
2018-04-12T08:39:59.231Z,65.84
2018-04-12T08:40:39.863Z,66.48
2018-04-12T08:41:20.385Z,65.81
2018-04-12T08:42:01.207Z,66.22
2018-04-12T08:42:41.595Z,66.42
2018-04-12T08:43:22.237Z,65.65
2018-04-12T08:44:02.801Z,65.94
2018-04-12T08:44:43.654Z,65.36